createdAt,value
2022-08-07T00:02:36.230Z,13.72
2022-08-07T00:05:23.606Z,13.67
2022-08-07T00:08:05.384Z,13.60
2022-08-07T00:10:57.503Z,13.52
2022-08-07T00:13:44.810Z,13.56
2022-08-07T00:16:36.478Z,13.59
2022-08-07T00:19:26.038Z,13.59
2022-08-07T00:22:09.846Z,13.58
2022-08-07T00:24:52.031Z,13.59
2022-08-07T00:27:35.843Z,13.58
2022-08-07T00:30:32.496Z,13.47
2022-08-07T00:34:09.001Z,13.45
2022-08-07T00:36:50.164Z,13.47
2022-08-07T00:39:30.716Z,13.46
2022-08-07T00:42:10.856Z,13.40
2022-08-07T00:44:51.868Z,13.33
2022-08-07T00:48:09.304Z,13.23
2022-08-07T00:50:50.752Z,13.33
2022-08-07T00:53:39.101Z,13.20
2022-08-07T00:56:33.872Z,13.13
2022-08-07T00:59:15.991Z,13.03
2022-08-07T01:01:57.871Z,13.13
2022-08-07T01:04:43.181Z,13.11
2022-08-07T01:07:28.661Z,13.07
2022-08-07T01:10:12.548Z,12.97
2022-08-07T01:12:56.918Z,12.95
2022-08-07T01:16:05.066Z,12.94
2022-08-07T01:18:46.222Z,12.91
2022-08-07T01:21:27.616Z,12.75
2022-08-07T01:24:13.574Z,12.81
2022-08-07T01:26:55.552Z,12.78
2022-08-07T01:29:38.938Z,12.78
2022-08-07T01:32:22.538Z,12.78
2022-08-07T01:35:36.862Z,12.71
2022-08-07T01:38:29.302Z,12.67
2022-08-07T01:41:27.537Z,12.71
2022-08-07T01:44:11.626Z,12.55
2022-08-07T01:46:55.500Z,12.63
2022-08-07T01:49:38.493Z,12.59
2022-08-07T01:52:19.867Z,12.58
2022-08-07T01:55:03.167Z,12.49
2022-08-07T01:58:06.198Z,12.58
2022-08-07T02:00:57.961Z,12.50
2022-08-07T02:03:55.671Z,12.49
2022-08-07T02:06:35.638Z,12.46
2022-08-07T02:09:51.994Z,12.46
2022-08-07T02:12:19.394Z,12.25
2022-08-07T02:15:11.404Z,12.32
2022-08-07T02:17:59.916Z,12.44
2022-08-07T02:20:55.925Z,12.24
2022-08-07T02:23:39.532Z,12.32
2022-08-07T02:26:32.919Z,12.30
2022-08-07T02:29:15.959Z,12.28
2022-08-07T02:32:05.251Z,12.28
2022-08-07T02:34:49.006Z,12.24
2022-08-07T02:37:46.675Z,12.22
2022-08-07T02:40:35.255Z,12.12
2022-08-07T02:43:18.070Z,12.12
2022-08-07T02:46:02.213Z,12.12
2022-08-07T02:48:54.711Z,12.07
2022-08-07T02:51:42.668Z,12.05
2022-08-07T02:54:36.468Z,12.00
2022-08-07T02:57:21.572Z,11.96
2022-08-07T03:00:15.620Z,11.96
2022-08-07T03:02:59.469Z,11.91
2022-08-07T03:05:42.171Z,11.93
2022-08-07T03:08:26.765Z,11.91
2022-08-07T03:11:09.675Z,11.92
2022-08-07T03:13:57.559Z,11.94
2022-08-07T03:16:43.799Z,11.89
2022-08-07T03:19:28.935Z,11.85
2022-08-07T03:22:20.049Z,11.82
2022-08-07T03:25:05.212Z,11.81
2022-08-07T03:28:09.371Z,11.82
2022-08-07T03:31:14.552Z,11.79
2022-08-07T03:33:59.424Z,11.77
2022-08-07T03:36:40.389Z,11.73
2022-08-07T03:39:45.918Z,11.69
2022-08-07T03:42:22.418Z,11.64
2022-08-07T03:45:05.010Z,11.64
2022-08-07T03:47:51.267Z,11.53
2022-08-07T03:50:35.799Z,11.47
2022-08-07T03:53:18.194Z,11.46
2022-08-07T03:56:04.413Z,11.44
2022-08-07T03:59:08.774Z,11.59
2022-08-07T04:01:51.052Z,11.40
2022-08-07T04:04:35.350Z,11.40
2022-08-07T04:07:18.135Z,11.44
2022-08-07T04:10:05.903Z,11.43
2022-08-07T04:12:56.214Z,11.46
2022-08-07T04:15:36.962Z,11.44
2022-08-07T04:18:56.893Z,11.42
2022-08-07T04:21:18.877Z,11.45
2022-08-07T04:24:07.378Z,11.41
2022-08-07T04:27:15.084Z,11.45
2022-08-07T04:30:04.595Z,11.39
2022-08-07T04:32:58.442Z,11.55
2022-08-07T04:35:53.966Z,11.56
2022-08-07T04:38:38.603Z,11.57
2022-08-07T04:41:19.307Z,11.58
2022-08-07T04:44:13.189Z,11.60
2022-08-07T04:47:08.478Z,11.65
2022-08-07T04:50:03.880Z,11.69
2022-08-07T04:52:52.829Z,11.71
2022-08-07T04:58:14.418Z,11.75
2022-08-07T05:01:57.326Z,11.85
2022-08-07T05:04:43.964Z,11.79
2022-08-07T05:07:48.645Z,11.77
2022-08-07T05:10:48.685Z,11.87
2022-08-07T05:14:54.299Z,11.90
2022-08-07T05:16:34.114Z,12.07
2022-08-07T05:19:43.975Z,12.16
2022-08-07T05:22:27.629Z,12.21
2022-08-07T05:25:26.286Z,12.28
2022-08-07T05:28:22.735Z,12.39
2022-08-07T05:31:04.868Z,12.48
2022-08-07T05:34:01.398Z,12.58
2022-08-07T05:36:53.091Z,12.63
2022-08-07T05:40:16.822Z,12.73
2022-08-07T05:42:55.865Z,12.80
2022-08-07T05:45:56.496Z,12.83
2022-08-07T05:48:38.135Z,13.01
2022-08-07T05:51:40.107Z,13.02
2022-08-07T05:54:44.601Z,13.10
2022-08-07T05:57:30.016Z,13.27
2022-08-07T06:00:19.892Z,13.42
2022-08-07T06:03:10.320Z,13.55
2022-08-07T06:05:56.498Z,13.69
2022-08-07T06:08:42.446Z,13.84
2022-08-07T06:11:27.173Z,13.95
2022-08-07T06:14:12.685Z,14.10
2022-08-07T06:17:07.180Z,14.26
2022-08-07T06:20:03.392Z,14.40
2022-08-07T06:22:50.672Z,14.59
2022-08-07T06:25:54.814Z,14.73
2022-08-07T06:28:50.497Z,14.82
2022-08-07T06:31:46.870Z,14.96
2022-08-07T06:34:32.748Z,15.13
2022-08-07T06:37:17.184Z,15.28
2022-08-07T06:40:13.135Z,15.43
2022-08-07T06:42:57.898Z,15.63
2022-08-07T06:45:56.289Z,15.78
2022-08-07T06:48:41.832Z,15.92
2022-08-07T06:51:33.336Z,16.08
2022-08-07T06:55:34.449Z,16.26
2022-08-07T06:57:21.081Z,16.48
2022-08-07T07:00:21.445Z,16.70
2022-08-07T07:03:08.801Z,16.94
2022-08-07T07:06:02.995Z,17.09
2022-08-07T07:08:49.539Z,17.26
2022-08-07T07:12:08.606Z,17.60
2022-08-07T07:14:33.905Z,17.90
2022-08-07T07:17:38.786Z,18.23
2022-08-07T07:20:21.950Z,18.64
2022-08-07T07:24:08.317Z,18.83
2022-08-07T07:26:32.752Z,19.24
2022-08-07T07:29:39.812Z,19.62
2022-08-07T07:32:14.049Z,19.92
2022-08-07T07:34:58.918Z,20.05
2022-08-07T07:37:47.155Z,20.52
2022-08-07T07:40:34.080Z,20.85
2022-08-07T07:43:27.405Z,20.69
2022-08-07T07:46:50.358Z,20.77
2022-08-07T07:50:35.903Z,20.90
2022-08-07T07:52:22.123Z,21.34
2022-08-07T07:55:08.474Z,22.20
2022-08-07T07:57:54.071Z,22.56
2022-08-07T08:00:40.478Z,23.07
2022-08-07T08:04:06.471Z,23.03
2022-08-07T08:06:26.062Z,23.76
2022-08-07T08:09:08.203Z,23.78
2022-08-07T08:12:01.833Z,23.77
2022-08-07T08:14:46.149Z,24.04
2022-08-07T08:17:58.016Z,24.63
2022-08-07T08:20:32.848Z,25.05
2022-08-07T08:23:35.856Z,25.61
2022-08-07T08:26:34.696Z,25.62
2022-08-07T08:29:17.988Z,26.28
2022-08-07T08:32:18.508Z,25.36
2022-08-07T08:34:59.442Z,26.00
2022-08-07T08:38:00.902Z,25.90
2022-08-07T08:40:59.273Z,26.68
2022-08-07T08:44:02.973Z,26.68
2022-08-07T08:47:17.189Z,27.01
2022-08-07T08:50:06.078Z,26.87
2022-08-07T08:53:06.281Z,27.64
2022-08-07T08:55:54.414Z,28.06
2022-08-07T08:58:50.566Z,27.85
2022-08-07T09:01:46.578Z,28.34
2022-08-07T09:04:36.460Z,28.34
2022-08-07T09:07:23.138Z,27.94
2022-08-07T09:10:21.193Z,28.03
2022-08-07T09:13:18.452Z,28.29
2022-08-07T09:16:25.229Z,29.06
2022-08-07T09:19:52.041Z,28.44
2022-08-07T09:24:31.147Z,27.31
2022-08-07T09:26:02.767Z,28.43
2022-08-07T09:30:01.792Z,28.46
2022-08-07T09:32:02.792Z,29.46
2022-08-07T09:34:54.058Z,29.83
2022-08-07T09:37:48.299Z,30.52
2022-08-07T09:40:41.867Z,30.63
2022-08-07T09:43:40.564Z,31.19
2022-08-07T09:47:50.580Z,31.10
2022-08-07T09:50:19.167Z,31.36
2022-08-07T09:53:13.417Z,31.19
2022-08-07T09:56:19.824Z,31.68
2022-08-07T09:59:44.694Z,31.44
2022-08-07T10:04:06.114Z,32.15
2022-08-07T10:06:36.681Z,32.25
2022-08-07T10:09:42.488Z,32.49
2022-08-07T10:12:39.698Z,32.88
2022-08-07T10:15:28.723Z,32.87
2022-08-07T10:18:26.662Z,31.77
2022-08-07T10:22:12.049Z,31.51
2022-08-07T10:24:40.393Z,31.64
2022-08-07T10:27:55.981Z,32.26
2022-08-07T10:31:12.631Z,31.89
2022-08-07T10:34:14.323Z,31.38
2022-08-07T10:37:05.666Z,31.75
2022-08-07T10:40:10.090Z,31.22
2022-08-07T10:42:59.844Z,31.92
2022-08-07T10:45:48.113Z,32.11
2022-08-07T10:48:44.251Z,31.95
2022-08-07T10:51:39.154Z,32.43
2022-08-07T10:54:30.027Z,31.62
2022-08-07T10:57:16.695Z,32.56
2022-08-07T11:00:08.952Z,32.94
2022-08-07T11:03:11.010Z,32.64
2022-08-07T11:05:56.555Z,32.56
2022-08-07T11:08:41.628Z,32.05
2022-08-07T11:11:26.931Z,32.67
2022-08-07T11:14:43.607Z,32.93
2022-08-07T11:17:23.189Z,33.04
2022-08-07T11:20:07.708Z,33.15
2022-08-07T11:22:56.476Z,33.31
2022-08-07T11:25:48.255Z,32.89
2022-08-07T11:28:35.643Z,31.89
2022-08-07T11:31:23.428Z,32.84
2022-08-07T11:34:10.290Z,33.33
2022-08-07T11:36:57.772Z,33.78
2022-08-07T11:39:59.741Z,33.78
2022-08-07T11:42:58.275Z,34.08
2022-08-07T11:45:59.243Z,34.34
2022-08-07T11:49:50.458Z,34.51
2022-08-07T11:52:29.338Z,34.70
2022-08-07T11:56:11.957Z,34.77
2022-08-07T11:58:33.334Z,34.51
2022-08-07T12:01:53.203Z,34.42
2022-08-07T12:04:36.431Z,34.13
2022-08-07T12:07:27.659Z,34.11
2022-08-07T12:10:26.493Z,33.91
2022-08-07T12:13:17.035Z,33.78
2022-08-07T12:16:09.254Z,31.94
2022-08-07T12:18:56.892Z,32.85
2022-08-07T12:21:55.987Z,32.36
2022-08-07T12:25:07.848Z,31.95
2022-08-07T12:28:08.667Z,31.83
2022-08-07T12:30:54.395Z,31.34
2022-08-07T12:34:00.699Z,31.91
2022-08-07T12:36:37.585Z,31.54
2022-08-07T12:39:43.170Z,31.88
2022-08-07T12:42:28.654Z,31.91
2022-08-07T12:45:20.749Z,31.76
2022-08-07T12:48:13.251Z,31.48
2022-08-07T12:51:13.190Z,31.27
2022-08-07T12:54:36.974Z,30.24
2022-08-07T12:57:19.719Z,29.83
2022-08-07T13:00:00.710Z,29.79
2022-08-07T13:02:52.011Z,29.98
2022-08-07T13:06:03.525Z,29.78
2022-08-07T13:08:53.707Z,29.45
2022-08-07T13:12:01.989Z,29.32
2022-08-07T13:14:55.270Z,28.89
2022-08-07T13:17:43.468Z,28.78
2022-08-07T13:20:29.160Z,28.84
2022-08-07T13:24:00.712Z,28.40
2022-08-07T13:26:53.722Z,28.09
2022-08-07T13:29:42.500Z,28.07
2022-08-07T13:32:32.368Z,27.72
2022-08-07T13:36:00.644Z,27.56
2022-08-07T13:38:31.022Z,27.38
2022-08-07T13:41:33.184Z,27.36
2022-08-07T13:44:13.743Z,27.11
2022-08-07T13:46:58.820Z,26.97
2022-08-07T13:50:33.063Z,26.89
2022-08-07T13:52:47.045Z,26.97
2022-08-07T13:55:28.274Z,26.99
2022-08-07T13:58:32.571Z,26.86
2022-08-07T14:01:28.669Z,26.62
2022-08-07T14:04:16.910Z,26.54
2022-08-07T14:07:09.615Z,26.47
2022-08-07T14:10:20.384Z,26.32
2022-08-07T14:13:03.908Z,26.42
2022-08-07T14:15:44.369Z,26.38
2022-08-07T14:18:39.881Z,26.37
2022-08-07T14:22:41.242Z,26.23
2022-08-07T14:24:26.304Z,26.22
2022-08-07T14:27:16.263Z,26.03
2022-08-07T14:30:13.907Z,25.98
2022-08-07T14:32:56.897Z,25.95
2022-08-07T14:35:45.266Z,25.90
2022-08-07T14:38:31.435Z,25.76
2022-08-07T14:41:19.655Z,25.34
2022-08-07T14:44:15.940Z,24.94
2022-08-07T14:47:14.194Z,25.10
2022-08-07T14:49:59.293Z,25.11
2022-08-07T14:52:40.611Z,25.05
2022-08-07T14:55:23.158Z,24.98
2022-08-07T14:58:04.912Z,25.00
2022-08-07T15:00:49.024Z,24.89
2022-08-07T15:06:32.465Z,24.75
2022-08-07T15:09:59.174Z,24.67
2022-08-07T15:12:25.543Z,24.64
2022-08-07T15:15:31.936Z,24.57
2022-08-07T15:18:33.589Z,24.50
2022-08-07T15:21:43.721Z,24.11
2022-08-07T15:25:13.967Z,24.05
2022-08-07T15:27:26.622Z,24.11
2022-08-07T15:33:19.664Z,24.15
2022-08-07T15:36:05.403Z,24.08
2022-08-07T15:38:59.249Z,24.00
2022-08-07T15:42:44.541Z,24.04
2022-08-07T15:45:02.286Z,24.01
2022-08-07T15:48:12.527Z,23.90
2022-08-07T15:51:08.289Z,23.92
2022-08-07T15:53:53.667Z,23.89
2022-08-07T15:56:36.207Z,23.83
2022-08-07T15:59:20.116Z,23.71
2022-08-07T16:02:25.635Z,23.70
2022-08-07T16:05:23.120Z,23.61
2022-08-07T16:08:38.805Z,23.64
2022-08-07T16:11:40.133Z,23.61
2022-08-07T16:14:34.221Z,23.53
2022-08-07T16:18:01.972Z,23.47
2022-08-07T16:20:55.315Z,23.36
2022-08-07T16:23:58.626Z,23.34
2022-08-07T16:27:01.081Z,23.33
2022-08-07T16:30:11.485Z,23.28
2022-08-07T16:34:05.979Z,23.21
2022-08-07T16:36:31.334Z,23.17
2022-08-07T16:39:40.683Z,23.07
2022-08-07T16:42:40.012Z,23.05
2022-08-07T16:46:21.312Z,23.01
2022-08-07T16:50:28.883Z,22.95
2022-08-07T16:52:50.701Z,22.86
2022-08-07T16:55:27.326Z,22.81
2022-08-07T16:58:54.273Z,22.78
2022-08-07T17:01:41.234Z,22.72
2022-08-07T17:04:34.341Z,22.69
2022-08-07T17:07:28.127Z,22.63
2022-08-07T17:10:36.017Z,22.58
2022-08-07T17:14:17.919Z,22.55
2022-08-07T17:16:55.549Z,22.48
2022-08-07T17:20:02.362Z,22.42
2022-08-07T17:22:57.744Z,22.41
2022-08-07T17:25:52.069Z,22.38
2022-08-07T17:28:38.285Z,22.29
2022-08-07T17:31:19.969Z,22.22
2022-08-07T17:34:33.038Z,22.24
2022-08-07T17:38:11.504Z,22.21
2022-08-07T17:40:30.710Z,22.16
2022-08-07T17:44:00.871Z,22.13
2022-08-07T17:46:34.400Z,22.10
2022-08-07T17:49:24.125Z,22.05
2022-08-07T17:52:12.877Z,22.01
2022-08-07T17:54:56.109Z,21.96
2022-08-07T17:57:59.175Z,21.93
2022-08-07T18:00:49.221Z,21.90
2022-08-07T18:04:04.214Z,21.86
2022-08-07T18:06:42.875Z,21.82
2022-08-07T18:10:06.725Z,21.75
2022-08-07T18:12:34.441Z,21.68
2022-08-07T18:15:20.217Z,21.66
2022-08-07T18:18:45.267Z,21.61
2022-08-07T18:21:28.766Z,21.57
2022-08-07T18:24:33.190Z,21.50
2022-08-07T18:27:38.422Z,21.41
2022-08-07T18:30:32.621Z,21.38
2022-08-07T18:33:55.183Z,21.30
2022-08-07T18:36:55.209Z,21.19
2022-08-07T18:40:08.614Z,21.17
2022-08-07T18:43:06.583Z,21.11
2022-08-07T18:46:24.748Z,21.05
2022-08-07T18:50:31.464Z,21.02
2022-08-07T18:52:40.894Z,20.89
2022-08-07T18:55:40.524Z,20.79
2022-08-07T18:58:39.095Z,20.69
2022-08-07T19:02:17.988Z,20.58
2022-08-07T19:04:57.581Z,20.46
2022-08-07T19:07:52.936Z,20.37
2022-08-07T19:10:51.205Z,20.23
2022-08-07T19:13:50.960Z,20.16
2022-08-07T19:17:00.404Z,20.06
2022-08-07T19:19:39.941Z,19.92
2022-08-07T19:22:31.150Z,19.84
2022-08-07T19:26:23.663Z,19.75
2022-08-07T19:28:29.593Z,19.64
2022-08-07T19:31:42.157Z,19.52
2022-08-07T19:34:15.857Z,19.44
2022-08-07T19:37:17.645Z,19.40
2022-08-07T19:40:01.859Z,19.30
2022-08-07T19:42:55.666Z,19.23
2022-08-07T19:46:07.151Z,19.21
2022-08-07T19:48:44.828Z,19.24
2022-08-07T19:51:50.803Z,19.15
2022-08-07T19:54:55.651Z,19.13
2022-08-07T19:58:01.099Z,19.05
2022-08-07T20:00:54.036Z,18.99
2022-08-07T20:03:37.235Z,18.92
2022-08-07T20:06:43.632Z,18.88
2022-08-07T20:10:33.352Z,18.83
2022-08-07T20:12:34.374Z,18.77
2022-08-07T20:15:22.148Z,18.70
2022-08-07T20:18:18.341Z,18.67
2022-08-07T20:21:02.130Z,18.59
2022-08-07T20:23:48.454Z,18.55
2022-08-07T20:26:46.167Z,18.50
2022-08-07T20:29:48.274Z,18.36
2022-08-07T20:32:41.206Z,18.37
2022-08-07T20:35:33.523Z,18.31
2022-08-07T20:38:15.249Z,18.27
2022-08-07T20:41:01.701Z,18.24
2022-08-07T20:43:47.857Z,18.20
2022-08-07T20:46:34.752Z,18.14
2022-08-07T20:49:59.148Z,18.08
2022-08-07T20:52:50.774Z,18.02
2022-08-07T20:55:28.215Z,17.96
2022-08-07T20:58:26.560Z,17.89
2022-08-07T21:01:19.952Z,17.84
2022-08-07T21:04:21.696Z,17.78
2022-08-07T21:07:04.034Z,17.72
2022-08-07T21:10:00.275Z,17.83
2022-08-07T21:12:41.307Z,17.80
2022-08-07T21:15:48.044Z,17.76
2022-08-07T21:18:29.397Z,17.70
2022-08-07T21:21:11.797Z,17.65
2022-08-07T21:24:00.031Z,17.60
2022-08-07T21:26:44.979Z,17.53
2022-08-07T21:29:33.462Z,17.49
2022-08-07T21:32:48.460Z,17.43
2022-08-07T21:36:00.085Z,17.38
2022-08-07T21:38:31.622Z,17.29
2022-08-07T21:41:20.430Z,17.22
2022-08-07T21:44:28.492Z,17.20
2022-08-07T21:47:17.162Z,17.13
2022-08-07T21:50:02.881Z,17.08
2022-08-07T21:52:49.362Z,17.03
2022-08-07T21:55:38.434Z,16.98
2022-08-07T21:58:32.911Z,16.92
2022-08-07T22:01:18.486Z,16.90
2022-08-07T22:04:08.638Z,16.82
2022-08-07T22:07:02.314Z,16.78
2022-08-07T22:09:54.118Z,16.77
2022-08-07T22:12:41.785Z,16.71
2022-08-07T22:16:39.781Z,16.68
2022-08-07T22:18:34.776Z,16.62
2022-08-07T22:22:04.999Z,16.56
2022-08-07T22:24:44.475Z,16.54
2022-08-07T22:27:51.237Z,16.49
2022-08-07T22:30:37.366Z,16.44
2022-08-07T22:33:18.196Z,16.40
2022-08-07T22:36:30.275Z,16.34
2022-08-07T22:39:23.247Z,16.30
2022-08-07T22:42:34.842Z,16.25
2022-08-07T22:46:40.812Z,16.20
2022-08-07T22:49:02.226Z,16.12
2022-08-07T22:51:58.213Z,16.06
2022-08-07T22:54:54.672Z,16.00
2022-08-07T22:57:50.109Z,15.95
2022-08-07T23:00:49.271Z,15.95
2022-08-07T23:03:58.479Z,15.92
2022-08-07T23:06:54.796Z,15.87
2022-08-07T23:10:05.950Z,15.86
2022-08-07T23:12:56.677Z,15.82
2022-08-07T23:16:06.386Z,15.78
2022-08-07T23:19:13.952Z,15.70
2022-08-07T23:21:59.146Z,15.65
2022-08-07T23:24:48.835Z,15.63
2022-08-07T23:28:21.223Z,15.62
2022-08-07T23:31:06.433Z,15.58
2022-08-07T23:34:35.390Z,15.55
2022-08-07T23:38:01.657Z,15.50
2022-08-07T23:40:43.780Z,15.46
2022-08-07T23:43:51.258Z,15.43
2022-08-07T23:46:50.764Z,15.43
2022-08-07T23:49:52.780Z,15.41
2022-08-07T23:53:00.908Z,15.36
2022-08-07T23:55:51.880Z,15.35
2022-08-07T23:58:39.891Z,15.30
